Time;durP1;ratioP1;P1;durP2;ratioP2;P2;SDS_P1;SDS_P2;PMS_P1;PMS_P2;Temp;Humidity;BMP_temperature;BMP_pressure;BME280_temperature;BME280_humidity;BME280_pressure;Samples;Min_cycle;Max_cycle;Signal;HPM_P1;HPM_P2
2022/07/09 00:01:17;;;;;;;1999.90;999.90;;;16.00;99.90;;;;;;5053167;28;20490;-76
2022/07/09 00:03:42;;;;;;;1999.90;999.90;;;15.90;99.90;;;;;;5067568;28;20369;-76
2022/07/09 00:06:08;;;;;;;1999.90;999.90;;;15.90;99.90;;;;;;5048867;28;20078;-76
2022/07/09 00:08:34;;;;;;;1999.90;999.90;;;15.90;99.90;;;;;;5063022;28;20044;-76
2022/07/09 00:11:00;;;;;;;1999.90;999.90;;;15.90;99.90;;;;;;5068766;28;20051;-76
2022/07/09 00:13:25;;;;;;;1999.90;999.90;;;15.90;99.90;;;;;;5064687;28;20429;-76
2022/07/09 00:15:52;;;;;;;1999.90;999.90;;;15.80;99.90;;;;;;5051514;28;20105;-76
2022/07/09 00:18:18;;;;;;;1999.90;999.90;;;15.90;99.90;;;;;;5074234;28;20039;-76
2022/07/09 00:20:44;;;;;;;1999.90;999.90;;;15.80;99.90;;;;;;5069530;28;20071;-76
2022/07/09 00:23:09;;;;;;;1999.90;999.90;;;15.80;99.90;;;;;;5066848;28;20074;-76
2022/07/09 00:25:35;;;;;;;1999.90;999.90;;;15.80;99.90;;;;;;5066883;28;20134;-77
2022/07/09 00:28:01;;;;;;;1999.90;999.90;;;15.90;99.90;;;;;;5066558;28;20048;-77
2022/07/09 00:30:27;;;;;;;1999.90;999.90;;;15.90;99.90;;;;;;5064831;28;20540;-76
2022/07/09 00:32:52;;;;;;;1999.90;999.90;;;15.90;99.90;;;;;;5067653;28;20041;-76
2022/07/09 00:35:18;;;;;;;1999.90;999.90;;;15.90;99.90;;;;;;5065090;28;20122;-76
2022/07/09 00:37:44;;;;;;;1999.90;999.90;;;15.90;99.90;;;;;;5049535;28;20051;-76
2022/07/09 00:40:10;;;;;;;1999.90;999.90;;;15.90;99.90;;;;;;5047644;28;20470;-76
2022/07/09 00:42:36;;;;;;;1999.90;999.90;;;15.90;99.90;;;;;;5051061;28;20036;-76
2022/07/09 00:45:02;;;;;;;1999.90;999.90;;;15.90;99.90;;;;;;5046755;28;20094;-77
2022/07/09 00:47:27;;;;;;;1999.90;999.90;;;15.90;99.90;;;;;;5044398;28;20041;-76
2022/07/09 00:49:54;;;;;;;1999.90;999.90;;;16.00;99.90;;;;;;5046357;28;20033;-76
2022/07/09 00:52:20;;;;;;;1999.90;999.90;;;16.00;99.90;;;;;;5047828;28;20049;-76
2022/07/09 00:54:46;;;;;;;1999.90;999.90;;;16.00;99.90;;;;;;5028186;28;20075;-76
2022/07/09 00:57:13;;;;;;;1999.90;999.90;;;16.00;99.90;;;;;;5045677;28;20076;-77
2022/07/09 00:59:39;;;;;;;1999.90;999.90;;;16.00;99.90;;;;;;5040764;28;20135;-76
2022/07/09 01:02:07;;;;;;;1999.90;999.90;;;16.00;99.90;;;;;;5042409;28;20053;-76
2022/07/09 01:04:33;;;;;;;1999.90;999.90;;;16.00;99.90;;;;;;5046786;28;20043;-77
2022/07/09 01:06:59;;;;;;;1999.90;999.90;;;16.00;99.90;;;;;;5044142;28;20043;-76
2022/07/09 01:09:26;;;;;;;1999.90;999.90;;;16.10;99.90;;;;;;5049670;28;20040;-77
2022/07/09 01:11:51;;;;;;;1999.90;999.90;;;16.10;99.90;;;;;;5049294;28;20080;-76
2022/07/09 01:14:17;;;;;;;1999.90;999.90;;;16.10;99.90;;;;;;5047022;28;20076;-76
2022/07/09 01:16:43;;;;;;;1999.90;999.90;;;16.10;99.90;;;;;;5045093;28;20131;-77
2022/07/09 01:19:09;;;;;;;1999.90;999.90;;;16.10;99.90;;;;;;5043356;28;21009;-77
2022/07/09 01:21:35;;;;;;;1999.90;999.90;;;16.10;99.90;;;;;;5049429;28;20547;-76
2022/07/09 01:24:01;;;;;;;1999.90;999.90;;;16.10;99.90;;;;;;5046742;28;20036;-77
2022/07/09 01:26:27;;;;;;;1999.90;999.90;;;16.10;99.90;;;;;;5030975;28;20064;-77
2022/07/09 01:28:53;;;;;;;1999.90;999.90;;;16.10;99.90;;;;;;5049829;28;20462;-76
2022/07/09 01:31:19;;;;;;;1999.90;999.90;;;16.10;99.90;;;;;;5040836;28;20044;-77
2022/07/09 01:33:45;;;;;;;1999.90;999.90;;;16.10;99.90;;;;;;5029812;28;20132;-76
2022/07/09 01:36:11;;;;;;;1999.90;999.90;;;16.10;99.90;;;;;;5037623;28;20044;-77
2022/07/09 01:38:37;;;;;;;1999.90;999.90;;;16.20;99.90;;;;;;5028402;28;20116;-77
2022/07/09 01:41:03;;;;;;;1999.90;999.90;;;16.10;99.90;;;;;;5042421;28;20127;-77
2022/07/09 01:43:28;;;;;;;1999.90;999.90;;;16.10;99.90;;;;;;5066890;28;20087;-77
2022/07/09 01:45:54;;;;;;;1999.90;999.90;;;16.20;99.90;;;;;;5056497;28;20048;-77
2022/07/09 01:48:20;;;;;;;1999.90;999.90;;;16.10;99.90;;;;;;5045075;28;20044;-77
2022/07/09 01:50:45;;;;;;;1999.90;999.90;;;16.10;99.90;;;;;;5050615;28;20486;-77
2022/07/09 01:53:11;;;;;;;1999.90;999.90;;;16.10;99.90;;;;;;5067312;28;20044;-76
2022/07/09 01:55:37;;;;;;;1999.90;999.90;;;16.10;99.90;;;;;;5063548;28;20048;-77
2022/07/09 01:58:02;;;;;;;1999.90;999.90;;;16.10;99.90;;;;;;5061723;28;20534;-77
2022/07/09 02:00:29;;;;;;;1999.90;999.90;;;16.10;99.90;;;;;;5049056;28;20052;-77
2022/07/09 02:02:55;;;;;;;1999.90;999.90;;;16.10;99.90;;;;;;5065930;28;20040;-77
2022/07/09 02:05:21;;;;;;;1999.90;999.90;;;16.00;99.90;;;;;;5067332;28;20072;-77
2022/07/09 02:07:47;;;;;;;1999.90;999.90;;;16.00;99.90;;;;;;5068125;28;20064;-77
2022/07/09 02:10:13;;;;;;;1999.90;999.90;;;16.00;99.90;;;;;;5054578;28;20465;-77
2022/07/09 02:12:39;;;;;;;1999.90;999.90;;;16.00;99.90;;;;;;5063756;28;20151;-77
2022/07/09 02:15:06;;;;;;;1999.90;999.90;;;16.00;99.90;;;;;;5072990;28;20421;-77
2022/07/09 02:17:32;;;;;;;1999.90;999.90;;;16.00;99.90;;;;;;5070348;28;20063;-77
2022/07/09 02:19:58;;;;;;;1999.90;999.90;;;15.90;99.90;;;;;;5071825;28;20071;-77
2022/07/09 02:22:24;;;;;;;1999.90;999.90;;;15.90;99.90;;;;;;5066661;28;20037;-77
2022/07/09 02:24:49;;;;;;;1999.90;999.90;;;16.00;99.90;;;;;;5051413;28;20042;-77
2022/07/09 02:27:15;;;;;;;1999.90;999.90;;;16.00;99.90;;;;;;5066569;28;20037;-77
2022/07/09 02:29:41;;;;;;;1999.90;999.90;;;16.00;99.90;;;;;;5058844;28;20460;-77
2022/07/09 02:32:07;;;;;;;1999.90;999.90;;;16.00;99.90;;;;;;5056321;28;20155;-77
2022/07/09 02:34:32;;;;;;;1999.90;999.90;;;15.90;99.90;;;;;;5065273;28;20521;-77
2022/07/09 02:36:58;;;;;;;1999.90;999.90;;;16.00;99.90;;;;;;5066480;28;20041;-77
2022/07/09 02:39:24;;;;;;;1999.90;999.90;;;16.00;99.90;;;;;;5067240;28;20494;-76
2022/07/09 02:41:50;;;;;;;1999.90;999.90;;;15.90;99.90;;;;;;5069240;28;20580;-77
2022/07/09 02:44:16;;;;;;;1999.90;999.90;;;15.90;99.90;;;;;;5065455;28;20064;-76
2022/07/09 02:46:41;;;;;;;1999.90;999.90;;;15.90;99.90;;;;;;5045138;28;20064;-77
2022/07/09 02:49:07;;;;;;;1999.90;999.90;;;15.90;99.90;;;;;;5060253;28;20047;-77
2022/07/09 02:51:33;;;;;;;1999.90;999.90;;;15.90;99.90;;;;;;5043629;28;20382;-76
2022/07/09 02:53:58;;;;;;;1999.90;999.90;;;15.90;99.90;;;;;;5064849;28;20170;-77
2022/07/09 02:56:24;;;;;;;1999.90;999.90;;;15.90;99.90;;;;;;5066968;28;20050;-77
2022/07/09 02:58:49;;;;;;;1999.90;999.90;;;15.90;99.90;;;;;;5067597;28;20071;-77
2022/07/09 03:01:15;;;;;;;1999.90;999.90;;;15.90;99.90;;;;;;5050258;28;20498;-77
2022/07/09 03:03:40;;;;;;;1999.90;999.90;;;15.90;99.90;;;;;;5082642;28;20522;-77
2022/07/09 03:06:08;;;;;;;1999.90;999.90;;;15.80;99.90;;;;;;5061421;28;20390;-77
2022/07/09 03:08:34;;;;;;;1999.90;999.90;;;15.70;99.90;;;;;;5049838;28;20052;-77
2022/07/09 03:10:59;;;;;;;1999.90;999.90;;;15.70;99.90;;;;;;5053586;28;20502;-77
2022/07/09 03:13:25;;;;;;;1999.90;999.90;;;15.60;99.90;;;;;;5065723;28;20038;-77
2022/07/09 03:15:51;;;;;;;1999.90;999.90;;;15.60;99.90;;;;;;5060365;28;20080;-77
2022/07/09 03:18:16;;;;;;;1999.90;999.90;;;15.50;99.90;;;;;;5057018;28;20032;-77
2022/07/09 03:20:42;;;;;;;1999.90;999.90;;;15.50;99.90;;;;;;5061464;28;20125;-76
2022/07/09 03:23:08;;;;;;;1999.90;999.90;;;15.40;99.90;;;;;;5046091;28;20467;-76
2022/07/09 03:25:33;;;;;;;1999.90;999.90;;;15.40;99.90;;;;;;5051210;28;20472;-77
2022/07/09 03:27:59;;;;;;;1999.90;999.90;;;15.40;99.90;;;;;;5051460;28;20395;-77
2022/07/09 03:30:24;;;;;;;1999.90;999.90;;;15.40;99.90;;;;;;5062775;28;20060;-76
2022/07/09 03:32:51;;;;;;;1999.90;999.90;;;15.40;99.90;;;;;;5065107;28;20037;-76
2022/07/09 03:35:17;;;;;;;1999.90;999.90;;;15.40;99.90;;;;;;5066339;28;20052;-76
2022/07/09 03:37:43;;;;;;;1999.90;999.90;;;15.40;99.90;;;;;;5065681;28;20040;-76
2022/07/09 03:40:09;;;;;;;1999.90;999.90;;;15.40;99.90;;;;;;5062046;28;20414;-77
2022/07/09 03:42:35;;;;;;;1999.90;999.90;;;15.40;99.90;;;;;;5032217;28;20053;-77
2022/07/09 03:45:01;;;;;;;1999.90;999.90;;;15.40;99.90;;;;;;5033670;28;20051;-77
2022/07/09 03:47:26;;;;;;;1999.90;999.90;;;15.50;99.90;;;;;;5031235;28;20039;-76
2022/07/09 03:49:52;;;;;;;1999.90;999.90;;;15.50;99.90;;;;;;5059547;28;20045;-77
2022/07/09 03:52:18;;;;;;;1999.90;999.90;;;15.50;99.90;;;;;;5079902;28;20782;-77
2022/07/09 03:54:43;;;;;;;1999.90;999.90;;;15.60;99.90;;;;;;5066881;28;20156;-76
2022/07/09 03:57:10;;;;;;;1999.90;999.90;;;15.60;99.90;;;;;;5043317;28;20821;-76
2022/07/09 03:59:35;;;;;;;1999.90;999.90;;;15.60;99.90;;;;;;5044300;28;20053;-76
2022/07/09 04:02:01;;;;;;;1999.90;999.90;;;15.50;99.90;;;;;;5079580;28;20033;-76
2022/07/09 04:04:27;;;;;;;1999.90;999.90;;;15.50;99.90;;;;;;5029805;28;20075;-76
2022/07/09 04:06:54;;;;;;;1999.90;999.90;;;15.60;99.90;;;;;;5045462;28;20068;-76
2022/07/09 04:09:20;;;;;;;1999.90;999.90;;;15.60;99.90;;;;;;5080094;28;20094;-76
2022/07/09 04:11:46;;;;;;;1999.90;999.90;;;15.70;99.90;;;;;;5098107;27;20036;-76
2022/07/09 04:14:14;;;;;;;1999.90;999.90;;;15.70;99.90;;;;;;5029863;28;20056;-77
2022/07/09 04:16:40;;;;;;;1999.90;999.90;;;15.70;99.90;;;;;;5082011;28;20091;-76
2022/07/09 04:19:06;;;;;;;1999.90;999.90;;;15.70;99.90;;;;;;5044413;28;20556;-77
2022/07/09 04:21:31;;;;;;;1999.90;999.90;;;15.80;99.90;;;;;;5037448;28;20041;-76
2022/07/09 04:23:57;;;;;;;1999.90;999.90;;;15.80;99.90;;;;;;5062232;28;20084;-76
2022/07/09 04:26:23;;;;;;;1999.90;999.90;;;15.80;99.90;;;;;;5066987;28;20041;-76
2022/07/09 04:28:49;;;;;;;1999.90;999.90;;;15.90;99.90;;;;;;5083722;28;20090;-77
2022/07/09 04:31:15;;;;;;;1999.90;999.90;;;15.90;99.90;;;;;;5049210;28;20048;-77
2022/07/09 04:33:43;;;;;;;1999.90;999.90;;;16.00;99.90;;;;;;5064465;28;20048;-76
2022/07/09 04:36:09;;;;;;;1999.90;999.90;;;16.00;99.90;;;;;;5080886;28;20044;-77
2022/07/09 04:38:34;;;;;;;1999.90;999.90;;;16.00;99.90;;;;;;5046756;28;20407;-76
2022/07/09 04:41:00;;;;;;;1999.90;999.90;;;16.10;99.90;;;;;;5048614;28;20055;-77
2022/07/09 04:43:26;;;;;;;1999.90;999.90;;;16.10;99.90;;;;;;5070076;28;20047;-77
2022/07/09 04:45:51;;;;;;;1999.90;999.90;;;16.20;99.90;;;;;;5050932;28;20150;-76
2022/07/09 04:48:17;;;;;;;1999.90;999.90;;;16.20;99.90;;;;;;5049824;28;20041;-77
2022/07/09 04:50:43;;;;;;;1999.90;999.90;;;16.30;99.90;;;;;;5066753;28;20128;-77
2022/07/09 04:53:08;;;;;;;1999.90;999.90;;;16.30;99.90;;;;;;5062128;28;20051;-76
2022/07/09 04:55:34;;;;;;;1999.90;999.90;;;16.30;99.90;;;;;;5061892;28;20044;-76
2022/07/09 04:57:59;;;;;;;1999.90;999.90;;;16.40;99.90;;;;;;5048368;28;20047;-76
2022/07/09 05:00:25;;;;;;;1999.90;999.90;;;16.50;99.90;;;;;;5052130;28;20044;-77
2022/07/09 05:02:51;;;;;;;1999.90;999.90;;;16.50;99.90;;;;;;5066169;28;20498;-77
2022/07/09 05:05:17;;;;;;;1999.90;999.90;;;16.50;99.90;;;;;;5064200;28;20092;-76
2022/07/09 05:07:42;;;;;;;1999.90;999.90;;;16.60;99.90;;;;;;5064280;28;20060;-76
2022/07/09 05:10:08;;;;;;;1999.90;999.90;;;16.60;99.90;;;;;;5061873;28;20459;-77
2022/07/09 05:12:34;;;;;;;1999.90;999.90;;;16.70;99.90;;;;;;5068644;28;20737;-76
2022/07/09 05:15:00;;;;;;;1999.90;999.90;;;16.70;99.90;;;;;;5066718;28;20041;-76
2022/07/09 05:17:26;;;;;;;1999.90;999.90;;;16.80;99.90;;;;;;5068632;28;20447;-76
2022/07/09 05:19:51;;;;;;;1999.90;999.90;;;16.90;99.90;;;;;;5069592;28;20130;-76
2022/07/09 05:22:17;;;;;;;1999.90;999.90;;;17.00;99.90;;;;;;5047499;28;20036;-76
2022/07/09 05:24:43;;;;;;;1999.90;999.90;;;17.10;99.90;;;;;;5066226;28;20067;-76
2022/07/09 05:27:09;;;;;;;1999.90;999.90;;;17.20;99.90;;;;;;5067020;28;20035;-76
2022/07/09 05:29:38;;;;;;;1999.90;999.90;;;17.20;99.90;;;;;;5071644;28;20056;-76
2022/07/09 05:32:04;;;;;;;1999.90;999.90;;;17.20;99.90;;;;;;5048383;28;20037;-77
2022/07/09 05:34:30;;;;;;;1999.90;999.90;;;17.30;99.90;;;;;;5053297;28;20330;-76
2022/07/09 05:36:56;;;;;;;1999.90;999.90;;;17.30;99.90;;;;;;5063365;28;20520;-76
2022/07/09 05:39:21;;;;;;;1999.90;999.90;;;17.30;99.90;;;;;;5050080;28;20577;-76
2022/07/09 05:41:48;;;;;;;1999.90;999.90;;;17.40;99.90;;;;;;5050917;28;20092;-76
2022/07/09 05:44:14;;;;;;;1999.90;999.90;;;17.30;99.90;;;;;;5051959;28;20127;-76
2022/07/09 05:46:40;;;;;;;1999.90;999.90;;;17.30;99.90;;;;;;5062453;28;20036;-76
2022/07/09 05:49:06;;;;;;;1999.90;999.90;;;17.40;99.90;;;;;;5053411;28;20052;-76
2022/07/09 05:51:32;;;;;;;1999.90;999.90;;;17.50;99.90;;;;;;5053838;28;20051;-76
2022/07/09 05:53:58;;;;;;;1999.90;999.90;;;17.50;99.90;;;;;;5065966;28;20397;-76
2022/07/09 05:56:24;;;;;;;1999.90;999.90;;;17.50;99.90;;;;;;5059924;28;20049;-76
2022/07/09 05:58:49;;;;;;;1999.90;999.90;;;17.60;99.90;;;;;;5070681;28;20055;-76
2022/07/09 06:01:15;;;;;;;1999.90;999.90;;;17.60;99.90;;;;;;5069552;28;20052;-76
2022/07/09 06:03:42;;;;;;;1999.90;999.90;;;17.60;99.90;;;;;;5065419;28;20036;-76
2022/07/09 06:06:07;;;;;;;1999.90;999.90;;;17.70;99.90;;;;;;5070827;28;20039;-76
2022/07/09 06:08:33;;;;;;;1999.90;999.90;;;17.70;99.90;;;;;;5066598;28;20486;-76
2022/07/09 06:10:59;;;;;;;1999.90;999.90;;;17.70;99.90;;;;;;5069045;28;20052;-76
2022/07/09 06:13:25;;;;;;;1999.90;999.90;;;17.70;99.90;;;;;;5053589;28;20494;-76
2022/07/09 06:15:52;;;;;;;1999.90;999.90;;;17.70;99.90;;;;;;5060431;28;20086;-76
2022/07/09 06:18:18;;;;;;;1999.90;999.90;;;17.70;99.90;;;;;;5057822;28;20055;-76
2022/07/09 06:20:44;;;;;;;1999.90;999.90;;;17.80;99.90;;;;;;5067646;28;20831;-76
2022/07/09 06:23:09;;;;;;;1999.90;999.90;;;17.80;99.90;;;;;;5071696;28;20071;-76
2022/07/09 06:25:37;;;;;;;1999.90;999.90;;;17.90;99.90;;;;;;5052077;28;20424;-76
2022/07/09 06:28:03;;;;;;;1999.90;999.90;;;17.90;99.90;;;;;;5069966;28;20051;-76
2022/07/09 06:30:28;;;;;;;1999.90;999.90;;;18.00;99.90;;;;;;5060056;28;20410;-76
2022/07/09 06:32:54;;;;;;;1999.90;999.90;;;18.00;99.90;;;;;;5071193;28;20051;-76
2022/07/09 06:35:20;;;;;;;1999.90;999.90;;;18.10;99.90;;;;;;5068621;28;20036;-76
2022/07/09 06:37:45;;;;;;;1999.90;999.90;;;18.10;99.90;;;;;;5067809;28;20037;-76
2022/07/09 06:40:12;;;;;;;1999.90;999.90;;;18.20;99.90;;;;;;5053585;28;20057;-75
2022/07/09 06:42:38;;;;;;;1999.90;999.90;;;18.20;99.90;;;;;;5090647;28;20595;-76
2022/07/09 06:45:04;;;;;;;1999.90;999.90;;;18.30;99.90;;;;;;5050056;28;20048;-76
2022/07/09 06:47:30;;;;;;;1999.90;999.90;;;18.30;99.90;;;;;;5056876;28;20036;-75
2022/07/09 06:49:56;;;;;;;1999.90;999.90;;;18.30;99.90;;;;;;5065179;28;20452;-76
2022/07/09 06:52:21;;;;;;;1999.90;999.90;;;18.30;99.90;;;;;;5070886;28;20028;-77
2022/07/09 06:54:47;;;;;;;1999.90;999.90;;;18.30;99.90;;;;;;5048660;28;20182;-75
2022/07/09 06:57:13;;;;;;;1999.90;999.90;;;18.30;99.90;;;;;;5066981;28;20055;-76
2022/07/09 06:59:39;;;;;;;1999.90;999.90;;;18.30;99.90;;;;;;5050841;28;20655;-76
2022/07/09 07:02:05;;;;;;;1999.90;999.90;;;18.30;99.90;;;;;;5067276;28;20059;-76
2022/07/09 07:04:30;;;;;;;1999.90;999.90;;;18.40;99.90;;;;;;5068593;28;20032;-76
2022/07/09 07:06:56;;;;;;;1999.90;999.90;;;18.40;99.90;;;;;;5047073;28;20158;-76
2022/07/09 07:09:22;;;;;;;1999.90;999.90;;;18.40;99.90;;;;;;5067495;28;20079;-76
2022/07/09 07:11:51;;;;;;;1999.90;999.90;;;18.40;99.90;;;;;;5067448;28;20040;-76
2022/07/09 07:14:17;;;;;;;1999.90;999.90;;;18.40;99.90;;;;;;5052274;28;20075;-76
2022/07/09 07:16:43;;;;;;;1999.90;999.90;;;18.40;99.90;;;;;;5103131;27;20044;-76
2022/07/09 07:19:10;;;;;;;1999.90;999.90;;;18.50;99.90;;;;;;5067158;28;20082;-76
2022/07/09 07:21:36;;;;;;;1999.90;999.90;;;18.60;99.90;;;;;;5070830;28;20036;-76
2022/07/09 07:24:03;;;;;;;1999.90;999.90;;;18.70;99.90;;;;;;5058256;28;20032;-76
2022/07/09 07:26:28;;;;;;;1999.90;999.90;;;18.80;99.90;;;;;;5072391;28;20122;-77
2022/07/09 07:28:54;;;;;;;1999.90;999.90;;;18.90;99.90;;;;;;5050953;28;20132;-76
2022/07/09 07:31:21;;;;;;;1999.90;999.90;;;19.00;99.90;;;;;;5071753;28;20040;-77
2022/07/09 07:33:46;;;;;;;1999.90;999.90;;;19.30;99.90;;;;;;5070092;28;20090;-77
2022/07/09 07:36:12;;;;;;;1999.90;999.90;;;19.60;99.90;;;;;;5051662;28;20053;-77
2022/07/09 07:38:38;;;;;;;1999.90;999.90;;;19.70;99.90;;;;;;5064443;28;20267;-76
2022/07/09 07:41:04;;;;;;;1999.90;999.90;;;19.80;99.90;;;;;;5071583;28;20509;-77
2022/07/09 07:43:29;;;;;;;1999.90;999.90;;;19.80;99.90;;;;;;5053977;28;20044;-77
2022/07/09 07:45:55;;;;;;;1999.90;999.90;;;19.70;99.90;;;;;;5050729;28;20052;-77
2022/07/09 07:48:20;;;;;;;1999.90;999.90;;;19.70;99.90;;;;;;5053146;28;20082;-76
2022/07/09 07:50:46;;;;;;;1999.90;999.90;;;19.50;99.90;;;;;;5072120;28;20040;-76
2022/07/09 07:53:12;;;;;;;1999.90;999.90;;;19.30;99.90;;;;;;5067504;28;20036;-77
2022/07/09 07:55:37;;;;;;;1999.90;999.90;;;19.10;99.90;;;;;;5061216;28;20115;-76
2022/07/09 07:58:03;;;;;;;1999.90;999.90;;;19.10;99.90;;;;;;5067829;28;20139;-76
2022/07/09 08:00:29;;;;;;;1999.90;999.90;;;19.10;99.90;;;;;;5064153;28;20032;-77
2022/07/09 08:02:54;;;;;;;1999.90;999.90;;;19.70;99.90;;;;;;5062692;28;20051;-76
2022/07/09 08:05:20;;;;;;;1999.90;999.90;;;20.40;99.90;;;;;;5062340;28;20048;-76
2022/07/09 08:07:46;;;;;;;1999.90;999.90;;;20.50;99.90;;;;;;5056451;28;20040;-77
2022/07/09 08:10:12;;;;;;;1999.90;999.90;;;20.30;99.90;;;;;;5065827;28;20498;-79
2022/07/09 08:12:37;;;;;;;1999.90;999.90;;;20.20;99.90;;;;;;5062548;28;20037;-77
2022/07/09 08:15:03;;;;;;;1999.90;999.90;;;20.50;99.90;;;;;;5056711;28;20132;-77
2022/07/09 08:17:29;;;;;;;1999.90;999.90;;;20.50;99.90;;;;;;5050555;28;20485;-77
2022/07/09 08:19:55;;;;;;;1999.90;999.90;;;20.50;99.90;;;;;;5057328;28;20135;-78
2022/07/09 08:22:21;;;;;;;1999.90;999.90;;;20.80;99.90;;;;;;5056070;28;20036;-78
2022/07/09 08:24:46;;;;;;;1999.90;999.90;;;20.90;99.90;;;;;;5058330;28;20558;-77
2022/07/09 08:27:12;;;;;;;1999.90;999.90;;;20.90;99.90;;;;;;5056478;28;20127;-77
2022/07/09 08:29:37;;;;;;;1999.90;999.90;;;20.70;99.90;;;;;;5081508;28;20675;-77
2022/07/09 08:32:04;;;;;;;1999.90;999.90;;;20.50;99.90;;;;;;5059152;28;20054;-77
2022/07/09 08:34:30;;;;;;;1999.90;999.90;;;20.60;99.90;;;;;;5066728;28;20085;-76
2022/07/09 08:36:55;;;;;;;1999.90;999.90;;;20.60;99.90;;;;;;5076045;28;20445;-77
2022/07/09 08:39:21;;;;;;;1999.90;999.90;;;20.60;99.90;;;;;;5056446;28;20040;-77
2022/07/09 08:41:47;;;;;;;1999.90;999.90;;;20.60;99.90;;;;;;5065601;28;20497;-74
2022/07/09 08:44:13;;;;;;;1999.90;999.90;;;20.40;99.90;;;;;;5052918;28;20045;-77
2022/07/09 08:46:39;;;;;;;1999.90;999.90;;;20.40;99.90;;;;;;5062516;28;20055;-77
2022/07/09 08:49:07;;;;;;;1999.90;999.90;;;20.60;99.90;;;;;;5066518;28;20575;-77
2022/07/09 08:51:34;;;;;;;1999.90;999.90;;;21.30;99.90;;;;;;5063608;28;20035;-77
2022/07/09 08:54:01;;;;;;;1999.90;999.90;;;22.10;99.90;;;;;;5057959;28;20090;-76
2022/07/09 08:56:26;;;;;;;1999.90;999.90;;;22.40;99.90;;;;;;5047260;28;20452;-78
2022/07/09 08:58:52;;;;;;;1999.90;999.90;;;22.10;99.90;;;;;;5067080;28;20032;-76
2022/07/09 09:01:18;;;;;;;1999.90;999.90;;;21.60;99.90;;;;;;5066965;28;20132;-76
2022/07/09 09:03:45;;;;;;;1999.90;999.90;;;21.20;99.90;;;;;;5055482;28;20596;-76
2022/07/09 09:06:12;;;;;;;1999.90;999.90;;;21.00;99.90;;;;;;5057898;28;20045;-77
2022/07/09 09:08:39;;;;;;;1999.90;999.90;;;21.30;99.90;;;;;;5066171;28;20048;-77
2022/07/09 09:11:16;;;;;;;1999.90;999.90;;;21.90;99.90;;;;;;5045696;28;20049;-77
2022/07/09 09:13:44;;;;;;;1999.90;999.90;;;22.60;99.90;;;;;;5062220;28;20064;-75
2022/07/09 09:16:11;;;;;;;1999.90;999.90;;;22.80;99.90;;;;;;5067103;28;20036;-77
2022/07/09 09:18:40;;;;;;;1999.90;999.90;;;22.30;99.90;;;;;;5060627;28;20052;-77
2022/07/09 09:21:08;;;;;;;1999.90;999.90;;;21.70;99.90;;;;;;5047958;28;20056;-78
2022/07/09 09:23:52;;;;;;;1999.90;999.90;;;21.70;99.90;;;;;;5066835;28;20048;-77
2022/07/09 09:26:23;;;;;;;1999.90;999.90;;;22.10;99.90;;;;;;5064269;28;20033;-76
2022/07/09 09:29:07;;;;;;;1999.90;999.90;;;22.30;99.90;;;;;;5068780;28;20402;-77
2022/07/09 09:31:36;;;;;;;1999.90;999.90;;;22.30;99.90;;;;;;5062509;28;20052;-76
2022/07/09 09:34:08;;;;;;;1999.90;999.90;;;22.40;99.90;;;;;;5067294;28;20040;-77
2022/07/09 09:36:42;;;;;;;1999.90;999.90;;;22.20;99.90;;;;;;5065456;28;20047;-77
2022/07/09 09:39:31;;;;;;;1999.90;999.90;;;21.80;99.90;;;;;;5065007;28;20051;-77
2022/07/09 09:41:59;;;;;;;1999.90;999.90;;;21.50;99.90;;;;;;5066681;28;20730;-77
2022/07/09 09:44:29;;;;;;;1999.90;999.90;;;21.20;99.90;;;;;;5076525;28;20505;-76
2022/07/09 09:46:55;;;;;;;1999.90;999.90;;;21.10;99.90;;;;;;5066248;28;20127;-76
2022/07/09 09:49:21;;;;;;;1999.90;999.90;;;21.00;99.90;;;;;;5042261;28;20551;-76
2022/07/09 09:52:05;;;;;;;1999.90;999.90;;;21.30;99.90;;;;;;5050475;28;20048;-77
2022/07/09 09:54:42;;;;;;;1999.90;999.90;;;21.60;99.90;;;;;;5060003;28;20043;-77
2022/07/09 09:57:10;;;;;;;1999.90;999.90;;;21.90;99.90;;;;;;5063493;28;20057;-77
2022/07/09 09:59:38;;;;;;;1999.90;999.90;;;22.20;99.90;;;;;;5045372;28;20041;-77
2022/07/09 10:02:11;;;;;;;1999.90;999.90;;;22.10;99.90;;;;;;5043725;28;20045;-77
2022/07/09 10:04:41;;;;;;;1999.90;999.90;;;22.00;99.90;;;;;;5078089;28;20093;-76
2022/07/09 10:07:09;;;;;;;1999.90;999.90;;;21.90;99.90;;;;;;5044945;28;20451;-77
2022/07/09 10:09:34;;;;;;;1999.90;999.90;;;21.80;99.90;;;;;;5056416;28;20115;-77
2022/07/09 10:12:00;;;;;;;1999.90;999.90;;;21.60;99.90;;;;;;5058762;28;20123;-77
2022/07/09 10:14:34;;;;;;;1999.90;999.90;;;21.50;99.90;;;;;;5069831;28;20036;-77
2022/07/09 10:17:14;;;;;;;1999.90;999.90;;;21.50;99.90;;;;;;5045680;28;20592;-77
2022/07/09 10:19:54;;;;;;;1999.90;999.90;;;21.50;99.90;;;;;;5073357;28;20041;-76
2022/07/09 10:22:21;;;;;;;1999.90;999.90;;;21.40;99.90;;;;;;5057353;28;20106;-77
2022/07/09 10:24:51;;;;;;;1999.90;999.90;;;21.50;99.90;;;;;;5068274;28;20047;-78
2022/07/09 10:27:17;;;;;;;1999.90;999.90;;;21.50;99.90;;;;;;5052982;28;20390;-77
2022/07/09 10:30:21;;;;;;;1999.90;999.90;;;20.90;99.90;;;;;;5062526;28;20042;-76
2022/07/09 10:33:01;;;;;;;1999.90;999.90;;;20.20;99.90;;;;;;5074651;28;20040;-77
2022/07/09 10:35:27;;;;;;;1999.90;999.90;;;19.60;99.90;;;;;;5091368;28;20079;-77
2022/07/09 10:37:53;;;;;;;1999.90;999.90;;;19.30;99.90;;;;;;5065910;28;20083;-78
2022/07/09 10:40:21;;;;;;;1999.90;999.90;;;19.30;99.90;;;;;;5055361;28;20051;-78
2022/07/09 10:43:02;;;;;;;1999.90;999.90;;;19.20;99.90;;;;;;5071038;28;20507;-76
2022/07/09 10:45:36;;;;;;;1999.90;999.90;;;19.10;99.90;;;;;;5073552;28;20037;-78
2022/07/09 10:48:04;;;;;;;1999.90;999.90;;;19.10;99.90;;;;;;5060626;28;20049;-76
2022/07/09 10:50:31;;;;;;;1999.90;999.90;;;19.20;99.90;;;;;;5073848;28;20406;-77
2022/07/09 10:52:59;;;;;;;1999.90;999.90;;;19.10;99.90;;;;;;5074360;28;20131;-77
2022/07/09 10:55:26;;;;;;;1999.90;999.90;;;19.00;99.90;;;;;;5059642;28;20084;-76
2022/07/09 10:57:53;;;;;;;1999.90;999.90;;;19.00;99.90;;;;;;5059247;28;20037;-76
2022/07/09 11:00:21;;;;;;;1999.90;999.90;;;19.00;99.90;;;;;;5053533;28;20076;-76
2022/07/09 11:02:55;;;;;;;1999.90;999.90;;;19.10;99.90;;;;;;5063758;28;20095;-77
2022/07/09 11:05:21;;;;;;;1999.90;999.90;;;19.30;99.90;;;;;;5060760;28;20037;-77
2022/07/09 11:08:02;;;;;;;1999.90;999.90;;;19.50;99.90;;;;;;5049192;28;20044;-76
2022/07/09 11:10:29;;;;;;;1999.90;999.90;;;19.80;99.90;;;;;;5063778;28;20059;-77
2022/07/09 11:12:58;;;;;;;1999.90;999.90;;;20.10;99.90;;;;;;5075420;28;20783;-76
2022/07/09 11:15:26;;;;;;;1999.90;999.90;;;20.30;99.90;;;;;;5049352;28;20702;-77
2022/07/09 11:18:03;;;;;;;1999.90;999.90;;;20.40;99.90;;;;;;5067612;28;20123;-77
2022/07/09 11:20:30;;;;;;;1999.90;999.90;;;20.70;99.90;;;;;;5062656;28;20460;-75
2022/07/09 11:22:59;;;;;;;1999.90;999.90;;;20.80;99.90;;;;;;5080945;28;21479;-77
2022/07/09 11:25:26;;;;;;;1999.90;999.90;;;20.90;99.90;;;;;;5050108;28;20062;-78
2022/07/09 11:27:56;;;;;;;1999.90;999.90;;;21.00;99.90;;;;;;5067292;28;20131;-76
2022/07/09 11:30:23;;;;;;;1999.90;999.90;;;21.20;99.90;;;;;;5066799;28;20513;-77
2022/07/09 11:32:49;;;;;;;1999.90;999.90;;;21.30;99.90;;;;;;5049567;28;20051;-76
2022/07/09 11:35:25;;;;;;;1999.90;999.90;;;21.40;99.90;;;;;;5066529;28;20078;-75
2022/07/09 11:37:51;;;;;;;1999.90;999.90;;;21.40;99.90;;;;;;5059093;28;20683;-74
2022/07/09 11:40:17;;;;;;;1999.90;999.90;;;21.50;99.90;;;;;;5067851;28;20106;-77
2022/07/09 11:42:44;;;;;;;1999.90;999.90;;;21.50;99.90;;;;;;5061556;28;20140;-78
2022/07/09 11:45:10;;;;;;;1999.90;999.90;;;21.70;99.90;;;;;;5061255;28;20040;-76
2022/07/09 11:47:37;;;;;;;1999.90;999.90;;;21.70;99.90;;;;;;5057965;28;20047;-77
2022/07/09 11:50:11;;;;;;;1999.90;999.90;;;21.60;98.80;;;;;;5059938;28;20041;-76
2022/07/09 11:52:45;;;;;;;1999.90;999.90;;;21.60;99.40;;;;;;5068484;28;20036;-77
2022/07/09 11:55:11;;;;;;;1999.90;999.90;;;21.50;99.20;;;;;;5076752;28;20443;-77
2022/07/09 11:57:37;;;;;;;1999.90;999.90;;;21.50;99.40;;;;;;5049181;28;20045;-77